sensor_id;sensor_type;location;lat;lon;timestamp;P1;durP1;ratioP1;P2;durP2;ratioP2
7561;SDS011;3822;48.784;9.174;2022-08-14T00:00:12;5.70;;;2.80;;
7561;SDS011;3822;48.784;9.174;2022-08-14T00:02:42;5.10;;;2.77;;
7561;SDS011;3822;48.784;9.174;2022-08-14T00:05:12;3.57;;;2.77;;
7561;SDS011;3822;48.784;9.174;2022-08-14T00:07:43;3.23;;;2.90;;
7561;SDS011;3822;48.784;9.174;2022-08-14T00:10:12;3.63;;;2.67;;
7561;SDS011;3822;48.784;9.174;2022-08-14T00:12:45;5.70;;;3.00;;
7561;SDS011;3822;48.784;9.174;2022-08-14T00:15:23;3.47;;;2.73;;
7561;SDS011;3822;48.784;9.174;2022-08-14T00:17:56;3.03;;;2.40;;
7561;SDS011;3822;48.784;9.174;2022-08-14T00:20:25;4.40;;;3.10;;
7561;SDS011;3822;48.784;9.174;2022-08-14T00:22:57;3.63;;;2.97;;
7561;SDS011;3822;48.784;9.174;2022-08-14T00:25:25;5.07;;;3.10;;
7561;SDS011;3822;48.784;9.174;2022-08-14T00:27:53;6.00;;;3.13;;
7561;SDS011;3822;48.784;9.174;2022-08-14T00:30:20;2.97;;;2.40;;
7561;SDS011;3822;48.784;9.174;2022-08-14T00:32:47;3.60;;;2.80;;
7561;SDS011;3822;48.784;9.174;2022-08-14T00:35:14;3.80;;;2.90;;
7561;SDS011;3822;48.784;9.174;2022-08-14T00:37:42;3.90;;;3.13;;
7561;SDS011;3822;48.784;9.174;2022-08-14T00:40:11;6.00;;;3.50;;
7561;SDS011;3822;48.784;9.174;2022-08-14T00:42:41;3.20;;;2.70;;
7561;SDS011;3822;48.784;9.174;2022-08-14T00:45:09;3.20;;;2.50;;
7561;SDS011;3822;48.784;9.174;2022-08-14T00:47:39;5.20;;;2.90;;
7561;SDS011;3822;48.784;9.174;2022-08-14T00:50:08;6.60;;;3.27;;
7561;SDS011;3822;48.784;9.174;2022-08-14T00:52:39;3.90;;;2.73;;
7561;SDS011;3822;48.784;9.174;2022-08-14T00:55:06;4.30;;;2.90;;
7561;SDS011;3822;48.784;9.174;2022-08-14T00:57:34;5.67;;;3.20;;
7561;SDS011;3822;48.784;9.174;2022-08-14T01:00:10;5.00;;;2.77;;
7561;SDS011;3822;48.784;9.174;2022-08-14T01:02:40;4.57;;;2.90;;
7561;SDS011;3822;48.784;9.174;2022-08-14T01:05:09;3.90;;;2.90;;
7561;SDS011;3822;48.784;9.174;2022-08-14T01:07:52;8.03;;;3.07;;
7561;SDS011;3822;48.784;9.174;2022-08-14T01:10:23;3.40;;;2.80;;
7561;SDS011;3822;48.784;9.174;2022-08-14T01:13:11;3.80;;;2.80;;
7561;SDS011;3822;48.784;9.174;2022-08-14T01:15:42;3.90;;;3.10;;
7561;SDS011;3822;48.784;9.174;2022-08-14T01:18:10;3.10;;;2.40;;
7561;SDS011;3822;48.784;9.174;2022-08-14T01:20:56;6.50;;;3.20;;
7561;SDS011;3822;48.784;9.174;2022-08-14T01:23:42;3.70;;;2.97;;
7561;SDS011;3822;48.784;9.174;2022-08-14T01:26:13;3.87;;;2.90;;
7561;SDS011;3822;48.784;9.174;2022-08-14T01:28:46;2.77;;;2.40;;
7561;SDS011;3822;48.784;9.174;2022-08-14T01:31:16;4.43;;;2.73;;
7561;SDS011;3822;48.784;9.174;2022-08-14T01:33:45;3.33;;;2.63;;
7561;SDS011;3822;48.784;9.174;2022-08-14T01:36:16;7.27;;;2.80;;
7561;SDS011;3822;48.784;9.174;2022-08-14T01:38:45;4.47;;;3.00;;
7561;SDS011;3822;48.784;9.174;2022-08-14T01:41:17;2.67;;;2.27;;
7561;SDS011;3822;48.784;9.174;2022-08-14T01:43:53;3.10;;;2.80;;
7561;SDS011;3822;48.784;9.174;2022-08-14T01:46:27;4.63;;;2.87;;
7561;SDS011;3822;48.784;9.174;2022-08-14T01:49:05;3.90;;;2.67;;
7561;SDS011;3822;48.784;9.174;2022-08-14T01:51:36;3.90;;;2.87;;
7561;SDS011;3822;48.784;9.174;2022-08-14T01:54:06;5.20;;;2.80;;
7561;SDS011;3822;48.784;9.174;2022-08-14T01:56:37;4.70;;;3.00;;
7561;SDS011;3822;48.784;9.174;2022-08-14T01:59:05;3.37;;;2.93;;
7561;SDS011;3822;48.784;9.174;2022-08-14T02:01:42;4.07;;;2.63;;
7561;SDS011;3822;48.784;9.174;2022-08-14T02:04:10;3.00;;;2.50;;
7561;SDS011;3822;48.784;9.174;2022-08-14T02:06:36;5.40;;;2.30;;
7561;SDS011;3822;48.784;9.174;2022-08-14T02:09:03;3.03;;;2.30;;
7561;SDS011;3822;48.784;9.174;2022-08-14T02:11:32;4.03;;;2.83;;
7561;SDS011;3822;48.784;9.174;2022-08-14T02:14:01;3.80;;;2.73;;
7561;SDS011;3822;48.784;9.174;2022-08-14T02:16:33;3.90;;;2.80;;
7561;SDS011;3822;48.784;9.174;2022-08-14T02:19:05;3.67;;;2.90;;
7561;SDS011;3822;48.784;9.174;2022-08-14T02:21:42;4.73;;;2.37;;
7561;SDS011;3822;48.784;9.174;2022-08-14T02:24:11;5.03;;;2.70;;
7561;SDS011;3822;48.784;9.174;2022-08-14T02:26:39;2.63;;;2.40;;
7561;SDS011;3822;48.784;9.174;2022-08-14T02:29:14;3.93;;;2.40;;
7561;SDS011;3822;48.784;9.174;2022-08-14T02:31:45;2.83;;;2.47;;
7561;SDS011;3822;48.784;9.174;2022-08-14T02:34:16;2.90;;;2.60;;
7561;SDS011;3822;48.784;9.174;2022-08-14T02:36:46;6.13;;;2.00;;
7561;SDS011;3822;48.784;9.174;2022-08-14T02:39:16;3.07;;;2.70;;
7561;SDS011;3822;48.784;9.174;2022-08-14T02:41:44;2.80;;;2.30;;
7561;SDS011;3822;48.784;9.174;2022-08-14T02:44:17;3.50;;;2.10;;
7561;SDS011;3822;48.784;9.174;2022-08-14T02:46:46;2.33;;;2.13;;
7561;SDS011;3822;48.784;9.174;2022-08-14T02:49:13;3.97;;;2.53;;
7561;SDS011;3822;48.784;9.174;2022-08-14T02:51:39;4.00;;;2.50;;
7561;SDS011;3822;48.784;9.174;2022-08-14T02:54:08;6.10;;;2.53;;
7561;SDS011;3822;48.784;9.174;2022-08-14T02:56:35;2.90;;;2.50;;
7561;SDS011;3822;48.784;9.174;2022-08-14T02:59:04;2.60;;;2.40;;
7561;SDS011;3822;48.784;9.174;2022-08-14T03:01:34;2.83;;;2.17;;
7561;SDS011;3822;48.784;9.174;2022-08-14T03:04:02;3.07;;;2.13;;
7561;SDS011;3822;48.784;9.174;2022-08-14T03:06:30;4.03;;;2.70;;
7561;SDS011;3822;48.784;9.174;2022-08-14T03:08:57;3.47;;;2.40;;
7561;SDS011;3822;48.784;9.174;2022-08-14T03:11:24;5.97;;;2.87;;
7561;SDS011;3822;48.784;9.174;2022-08-14T03:13:51;3.50;;;2.43;;
7561;SDS011;3822;48.784;9.174;2022-08-14T03:16:19;4.13;;;3.07;;
7561;SDS011;3822;48.784;9.174;2022-08-14T03:18:49;2.97;;;2.67;;
7561;SDS011;3822;48.784;9.174;2022-08-14T03:21:20;3.40;;;2.67;;
7561;SDS011;3822;48.784;9.174;2022-08-14T03:23:49;3.43;;;2.53;;
7561;SDS011;3822;48.784;9.174;2022-08-14T03:26:41;5.63;;;2.33;;
7561;SDS011;3822;48.784;9.174;2022-08-14T03:29:11;4.97;;;2.60;;
7561;SDS011;3822;48.784;9.174;2022-08-14T03:31:45;5.00;;;2.90;;
7561;SDS011;3822;48.784;9.174;2022-08-14T03:34:15;5.57;;;2.90;;
7561;SDS011;3822;48.784;9.174;2022-08-14T03:36:43;3.37;;;2.77;;
7561;SDS011;3822;48.784;9.174;2022-08-14T03:39:10;3.43;;;3.13;;
7561;SDS011;3822;48.784;9.174;2022-08-14T03:41:37;5.10;;;3.03;;
7561;SDS011;3822;48.784;9.174;2022-08-14T03:44:05;4.83;;;3.10;;
7561;SDS011;3822;48.784;9.174;2022-08-14T03:46:33;5.17;;;2.80;;
7561;SDS011;3822;48.784;9.174;2022-08-14T03:49:02;3.30;;;2.83;;
7561;SDS011;3822;48.784;9.174;2022-08-14T03:51:30;3.60;;;3.00;;
7561;SDS011;3822;48.784;9.174;2022-08-14T03:53:59;3.00;;;2.70;;
7561;SDS011;3822;48.784;9.174;2022-08-14T03:56:29;3.03;;;2.63;;
7561;SDS011;3822;48.784;9.174;2022-08-14T03:58:56;3.07;;;2.33;;
7561;SDS011;3822;48.784;9.174;2022-08-14T04:01:39;3.40;;;2.90;;
7561;SDS011;3822;48.784;9.174;2022-08-14T04:04:06;7.63;;;3.07;;
7561;SDS011;3822;48.784;9.174;2022-08-14T04:06:35;3.03;;;2.60;;
7561;SDS011;3822;48.784;9.174;2022-08-14T04:09:03;4.53;;;2.77;;
7561;SDS011;3822;48.784;9.174;2022-08-14T04:11:32;4.73;;;2.90;;
7561;SDS011;3822;48.784;9.174;2022-08-14T04:14:01;5.57;;;2.70;;
7561;SDS011;3822;48.784;9.174;2022-08-14T04:16:29;5.80;;;2.97;;
7561;SDS011;3822;48.784;9.174;2022-08-14T04:18:57;4.00;;;2.80;;
7561;SDS011;3822;48.784;9.174;2022-08-14T04:21:25;3.00;;;2.30;;
7561;SDS011;3822;48.784;9.174;2022-08-14T04:23:55;5.30;;;3.13;;
7561;SDS011;3822;48.784;9.174;2022-08-14T04:26:24;4.60;;;2.20;;
7561;SDS011;3822;48.784;9.174;2022-08-14T04:28:54;3.50;;;2.87;;
7561;SDS011;3822;48.784;9.174;2022-08-14T04:31:22;3.50;;;2.57;;
7561;SDS011;3822;48.784;9.174;2022-08-14T04:33:49;3.73;;;2.77;;
7561;SDS011;3822;48.784;9.174;2022-08-14T04:36:17;4.33;;;2.50;;
7561;SDS011;3822;48.784;9.174;2022-08-14T04:38:44;3.40;;;2.50;;
7561;SDS011;3822;48.784;9.174;2022-08-14T04:41:29;3.67;;;3.17;;
7561;SDS011;3822;48.784;9.174;2022-08-14T04:44:14;4.80;;;2.90;;
7561;SDS011;3822;48.784;9.174;2022-08-14T04:46:41;6.23;;;3.10;;
7561;SDS011;3822;48.784;9.174;2022-08-14T04:49:27;3.63;;;2.80;;
7561;SDS011;3822;48.784;9.174;2022-08-14T04:51:54;3.87;;;2.47;;
7561;SDS011;3822;48.784;9.174;2022-08-14T04:54:21;3.90;;;2.97;;
7561;SDS011;3822;48.784;9.174;2022-08-14T04:56:52;2.50;;;2.13;;
7561;SDS011;3822;48.784;9.174;2022-08-14T04:59:21;3.97;;;2.70;;
7561;SDS011;3822;48.784;9.174;2022-08-14T05:01:49;3.70;;;2.40;;
7561;SDS011;3822;48.784;9.174;2022-08-14T05:04:17;3.10;;;2.80;;
7561;SDS011;3822;48.784;9.174;2022-08-14T05:06:47;3.83;;;2.73;;
7561;SDS011;3822;48.784;9.174;2022-08-14T05:09:15;4.53;;;2.50;;
7561;SDS011;3822;48.784;9.174;2022-08-14T05:11:42;3.73;;;2.73;;
7561;SDS011;3822;48.784;9.174;2022-08-14T05:14:09;3.00;;;2.23;;
7561;SDS011;3822;48.784;9.174;2022-08-14T05:16:37;3.13;;;2.70;;
7561;SDS011;3822;48.784;9.174;2022-08-14T05:19:03;3.10;;;2.80;;
7561;SDS011;3822;48.784;9.174;2022-08-14T05:21:30;4.70;;;2.97;;
7561;SDS011;3822;48.784;9.174;2022-08-14T05:23:57;3.27;;;2.57;;
7561;SDS011;3822;48.784;9.174;2022-08-14T05:26:24;5.87;;;3.43;;
7561;SDS011;3822;48.784;9.174;2022-08-14T05:28:50;5.60;;;3.03;;
7561;SDS011;3822;48.784;9.174;2022-08-14T05:31:17;3.90;;;2.47;;
7561;SDS011;3822;48.784;9.174;2022-08-14T05:33:44;4.27;;;2.90;;
7561;SDS011;3822;48.784;9.174;2022-08-14T05:36:11;4.33;;;2.53;;
7561;SDS011;3822;48.784;9.174;2022-08-14T05:38:43;3.20;;;2.67;;
7561;SDS011;3822;48.784;9.174;2022-08-14T05:41:13;4.70;;;2.67;;
7561;SDS011;3822;48.784;9.174;2022-08-14T05:43:44;3.57;;;3.00;;
7561;SDS011;3822;48.784;9.174;2022-08-14T05:46:13;3.20;;;2.80;;
7561;SDS011;3822;48.784;9.174;2022-08-14T05:48:47;4.30;;;2.57;;
7561;SDS011;3822;48.784;9.174;2022-08-14T05:51:15;5.23;;;2.80;;
7561;SDS011;3822;48.784;9.174;2022-08-14T05:53:42;3.50;;;3.00;;
7561;SDS011;3822;48.784;9.174;2022-08-14T05:56:08;2.50;;;2.30;;
7561;SDS011;3822;48.784;9.174;2022-08-14T05:58:35;3.53;;;2.47;;
7561;SDS011;3822;48.784;9.174;2022-08-14T06:01:02;6.73;;;2.87;;
7561;SDS011;3822;48.784;9.174;2022-08-14T06:03:29;3.00;;;2.70;;
7561;SDS011;3822;48.784;9.174;2022-08-14T06:05:55;3.70;;;2.80;;
7561;SDS011;3822;48.784;9.174;2022-08-14T06:08:31;3.20;;;2.57;;
7561;SDS011;3822;48.784;9.174;2022-08-14T06:10:59;4.30;;;2.50;;
7561;SDS011;3822;48.784;9.174;2022-08-14T06:13:32;3.50;;;2.67;;
7561;SDS011;3822;48.784;9.174;2022-08-14T06:16:02;3.17;;;2.60;;
7561;SDS011;3822;48.784;9.174;2022-08-14T06:18:29;6.00;;;2.60;;
7561;SDS011;3822;48.784;9.174;2022-08-14T06:20:55;5.67;;;3.07;;
7561;SDS011;3822;48.784;9.174;2022-08-14T06:23:22;2.70;;;2.50;;
7561;SDS011;3822;48.784;9.174;2022-08-14T06:25:49;3.30;;;2.53;;
7561;SDS011;3822;48.784;9.174;2022-08-14T06:28:19;3.63;;;2.70;;
7561;SDS011;3822;48.784;9.174;2022-08-14T06:30:48;5.47;;;2.67;;
7561;SDS011;3822;48.784;9.174;2022-08-14T06:33:16;4.00;;;2.67;;
7561;SDS011;3822;48.784;9.174;2022-08-14T06:35:45;4.60;;;3.23;;
7561;SDS011;3822;48.784;9.174;2022-08-14T06:38:13;3.30;;;2.90;;
7561;SDS011;3822;48.784;9.174;2022-08-14T06:40:49;3.30;;;2.57;;
7561;SDS011;3822;48.784;9.174;2022-08-14T06:43:17;3.77;;;2.53;;
7561;SDS011;3822;48.784;9.174;2022-08-14T06:45:46;3.03;;;2.63;;
7561;SDS011;3822;48.784;9.174;2022-08-14T06:48:15;4.70;;;2.13;;
7561;SDS011;3822;48.784;9.174;2022-08-14T06:50:48;3.47;;;3.17;;
7561;SDS011;3822;48.784;9.174;2022-08-14T06:53:20;5.63;;;2.73;;
7561;SDS011;3822;48.784;9.174;2022-08-14T06:55:47;4.90;;;3.30;;
7561;SDS011;3822;48.784;9.174;2022-08-14T06:58:15;4.93;;;2.73;;
7561;SDS011;3822;48.784;9.174;2022-08-14T07:00:44;3.07;;;2.47;;
7561;SDS011;3822;48.784;9.174;2022-08-14T07:03:30;6.23;;;2.50;;
7561;SDS011;3822;48.784;9.174;2022-08-14T07:06:16;2.53;;;2.10;;
7561;SDS011;3822;48.784;9.174;2022-08-14T07:08:43;2.73;;;2.53;;
7561;SDS011;3822;48.784;9.174;2022-08-14T07:11:11;3.23;;;2.60;;
7561;SDS011;3822;48.784;9.174;2022-08-14T07:13:38;5.00;;;2.60;;
7561;SDS011;3822;48.784;9.174;2022-08-14T07:16:05;3.80;;;2.47;;
7561;SDS011;3822;48.784;9.174;2022-08-14T07:18:33;3.77;;;2.97;;
7561;SDS011;3822;48.784;9.174;2022-08-14T07:21:01;3.00;;;2.33;;
7561;SDS011;3822;48.784;9.174;2022-08-14T07:23:30;3.30;;;2.47;;
7561;SDS011;3822;48.784;9.174;2022-08-14T07:25:58;13.10;;;2.83;;
7561;SDS011;3822;48.784;9.174;2022-08-14T07:28:30;3.60;;;3.00;;
7561;SDS011;3822;48.784;9.174;2022-08-14T07:31:02;3.90;;;2.80;;
7561;SDS011;3822;48.784;9.174;2022-08-14T07:33:33;3.50;;;2.90;;
7561;SDS011;3822;48.784;9.174;2022-08-14T07:36:07;3.43;;;3.10;;
7561;SDS011;3822;48.784;9.174;2022-08-14T07:38:38;5.17;;;3.57;;
7561;SDS011;3822;48.784;9.174;2022-08-14T07:41:09;3.57;;;3.23;;
7561;SDS011;3822;48.784;9.174;2022-08-14T07:43:38;2.90;;;2.50;;
7561;SDS011;3822;48.784;9.174;2022-08-14T07:46:05;2.57;;;2.37;;
7561;SDS011;3822;48.784;9.174;2022-08-14T07:48:36;10.00;;;3.60;;
7561;SDS011;3822;48.784;9.174;2022-08-14T07:51:08;3.50;;;3.00;;
7561;SDS011;3822;48.784;9.174;2022-08-14T07:53:35;5.13;;;2.77;;
7561;SDS011;3822;48.784;9.174;2022-08-14T07:56:02;3.33;;;2.33;;
7561;SDS011;3822;48.784;9.174;2022-08-14T07:58:28;3.27;;;2.43;;
7561;SDS011;3822;48.784;9.174;2022-08-14T08:00:55;2.80;;;2.37;;
7561;SDS011;3822;48.784;9.174;2022-08-14T08:03:22;2.23;;;2.03;;
7561;SDS011;3822;48.784;9.174;2022-08-14T08:05:52;3.73;;;2.00;;
7561;SDS011;3822;48.784;9.174;2022-08-14T08:08:19;5.07;;;2.50;;
7561;SDS011;3822;48.784;9.174;2022-08-14T08:10:46;3.17;;;2.37;;
7561;SDS011;3822;48.784;9.174;2022-08-14T08:13:15;2.30;;;2.10;;
7561;SDS011;3822;48.784;9.174;2022-08-14T08:15:50;2.53;;;2.03;;
7561;SDS011;3822;48.784;9.174;2022-08-14T08:18:19;5.70;;;2.33;;
7561;SDS011;3822;48.784;9.174;2022-08-14T08:20:47;5.23;;;3.13;;
7561;SDS011;3822;48.784;9.174;2022-08-14T08:23:17;3.00;;;2.43;;
7561;SDS011;3822;48.784;9.174;2022-08-14T08:25:46;2.77;;;2.47;;
7561;SDS011;3822;48.784;9.174;2022-08-14T08:28:16;3.17;;;2.30;;
7561;SDS011;3822;48.784;9.174;2022-08-14T08:33:26;1.87;;;1.67;;
7561;SDS011;3822;48.784;9.174;2022-08-14T08:36:07;2.70;;;2.40;;
7561;SDS011;3822;48.784;9.174;2022-08-14T08:38:37;2.60;;;2.37;;
7561;SDS011;3822;48.784;9.174;2022-08-14T08:41:04;3.90;;;2.47;;
7561;SDS011;3822;48.784;9.174;2022-08-14T08:43:31;3.87;;;2.40;;
7561;SDS011;3822;48.784;9.174;2022-08-14T08:51:33;3.17;;;2.80;;
7561;SDS011;3822;48.784;9.174;2022-08-14T08:54:09;2.50;;;2.27;;
7561;SDS011;3822;48.784;9.174;2022-08-14T08:56:41;5.00;;;2.70;;
7561;SDS011;3822;48.784;9.174;2022-08-14T08:59:28;4.40;;;2.33;;
7561;SDS011;3822;48.784;9.174;2022-08-14T09:02:00;3.67;;;2.20;;
7561;SDS011;3822;48.784;9.174;2022-08-14T09:04:38;2.60;;;2.40;;
7561;SDS011;3822;48.784;9.174;2022-08-14T09:07:09;5.20;;;2.13;;
7561;SDS011;3822;48.784;9.174;2022-08-14T09:09:37;3.40;;;2.33;;
7561;SDS011;3822;48.784;9.174;2022-08-14T09:12:16;2.57;;;2.20;;
7561;SDS011;3822;48.784;9.174;2022-08-14T09:14:44;8.40;;;2.23;;
7561;SDS011;3822;48.784;9.174;2022-08-14T09:17:13;4.53;;;2.20;;
7561;SDS011;3822;48.784;9.174;2022-08-14T09:19:40;3.80;;;2.37;;
7561;SDS011;3822;48.784;9.174;2022-08-14T09:22:07;2.80;;;2.40;;
7561;SDS011;3822;48.784;9.174;2022-08-14T09:24:35;3.57;;;2.20;;
7561;SDS011;3822;48.784;9.174;2022-08-14T09:27:02;2.80;;;2.07;;
7561;SDS011;3822;48.784;9.174;2022-08-14T09:29:29;2.73;;;2.50;;
7561;SDS011;3822;48.784;9.174;2022-08-14T09:31:57;2.90;;;2.50;;
7561;SDS011;3822;48.784;9.174;2022-08-14T09:37:36;3.37;;;2.40;;
7561;SDS011;3822;48.784;9.174;2022-08-14T09:46:32;3.67;;;2.30;;
7561;SDS011;3822;48.784;9.174;2022-08-14T09:49:00;9.93;;;3.00;;
7561;SDS011;3822;48.784;9.174;2022-08-14T09:51:29;2.83;;;2.30;;
7561;SDS011;3822;48.784;9.174;2022-08-14T09:56:44;3.50;;;2.33;;
7561;SDS011;3822;48.784;9.174;2022-08-14T09:59:16;2.90;;;2.60;;
7561;SDS011;3822;48.784;9.174;2022-08-14T10:01:47;2.60;;;2.23;;
7561;SDS011;3822;48.784;9.174;2022-08-14T10:04:18;2.40;;;2.20;;
7561;SDS011;3822;48.784;9.174;2022-08-14T10:06:54;3.07;;;2.60;;
7561;SDS011;3822;48.784;9.174;2022-08-14T10:09:20;2.43;;;2.23;;
7561;SDS011;3822;48.784;9.174;2022-08-14T10:11:57;3.87;;;2.60;;
7561;SDS011;3822;48.784;9.174;2022-08-14T10:14:27;2.47;;;2.27;;
7561;SDS011;3822;48.784;9.174;2022-08-14T10:16:58;3.30;;;2.97;;
7561;SDS011;3822;48.784;9.174;2022-08-14T10:19:27;2.77;;;2.30;;
7561;SDS011;3822;48.784;9.174;2022-08-14T10:24:31;3.50;;;2.50;;
7561;SDS011;3822;48.784;9.174;2022-08-14T10:27:12;3.50;;;2.30;;
7561;SDS011;3822;48.784;9.174;2022-08-14T10:29:51;2.93;;;2.43;;
7561;SDS011;3822;48.784;9.174;2022-08-14T10:32:20;2.50;;;2.30;;
7561;SDS011;3822;48.784;9.174;2022-08-14T10:34:48;3.10;;;2.20;;
7561;SDS011;3822;48.784;9.174;2022-08-14T10:37:16;4.13;;;2.60;;
7561;SDS011;3822;48.784;9.174;2022-08-14T10:39:44;3.30;;;2.97;;
7561;SDS011;3822;48.784;9.174;2022-08-14T10:42:33;4.47;;;2.90;;
7561;SDS011;3822;48.784;9.174;2022-08-14T10:45:02;4.60;;;3.30;;
7561;SDS011;3822;48.784;9.174;2022-08-14T10:47:43;6.60;;;2.90;;
7561;SDS011;3822;48.784;9.174;2022-08-14T10:50:09;2.80;;;2.60;;
7561;SDS011;3822;48.784;9.174;2022-08-14T10:52:36;4.13;;;2.30;;
7561;SDS011;3822;48.784;9.174;2022-08-14T10:55:05;3.33;;;2.77;;
7561;SDS011;3822;48.784;9.174;2022-08-14T10:57:48;3.57;;;2.50;;
7561;SDS011;3822;48.784;9.174;2022-08-14T11:00:18;3.77;;;2.70;;
7561;SDS011;3822;48.784;9.174;2022-08-14T11:02:58;3.77;;;2.80;;
7561;SDS011;3822;48.784;9.174;2022-08-14T11:05:38;2.73;;;2.40;;
7561;SDS011;3822;48.784;9.174;2022-08-14T11:08:08;4.13;;;2.80;;
7561;SDS011;3822;48.784;9.174;2022-08-14T11:10:43;3.07;;;2.77;;
7561;SDS011;3822;48.784;9.174;2022-08-14T11:13:19;2.73;;;2.47;;
7561;SDS011;3822;48.784;9.174;2022-08-14T11:15:54;3.23;;;2.90;;
7561;SDS011;3822;48.784;9.174;2022-08-14T11:18:27;6.23;;;2.47;;
7561;SDS011;3822;48.784;9.174;2022-08-14T11:20:56;3.30;;;3.00;;
7561;SDS011;3822;48.784;9.174;2022-08-14T11:23:26;4.03;;;2.70;;
7561;SDS011;3822;48.784;9.174;2022-08-14T11:26:02;2.73;;;2.30;;
7561;SDS011;3822;48.784;9.174;2022-08-14T11:28:35;2.83;;;2.57;;
7561;SDS011;3822;48.784;9.174;2022-08-14T11:31:09;3.30;;;2.63;;
7561;SDS011;3822;48.784;9.174;2022-08-14T11:33:40;5.23;;;3.17;;
7561;SDS011;3822;48.784;9.174;2022-08-14T11:36:07;4.33;;;3.67;;
7561;SDS011;3822;48.784;9.174;2022-08-14T11:38:37;4.97;;;2.73;;
7561;SDS011;3822;48.784;9.174;2022-08-14T11:41:09;2.77;;;2.43;;
7561;SDS011;3822;48.784;9.174;2022-08-14T11:43:38;3.30;;;2.80;;
7561;SDS011;3822;48.784;9.174;2022-08-14T11:46:06;2.57;;;2.37;;
7561;SDS011;3822;48.784;9.174;2022-08-14T11:48:45;3.50;;;2.40;;
7561;SDS011;3822;48.784;9.174;2022-08-14T11:51:21;4.40;;;2.93;;
7561;SDS011;3822;48.784;9.174;2022-08-14T11:53:53;4.07;;;3.17;;
7561;SDS011;3822;48.784;9.174;2022-08-14T11:56:33;2.90;;;2.70;;
7561;SDS011;3822;48.784;9.174;2022-08-14T11:59:01;4.20;;;2.97;;
7561;SDS011;3822;48.784;9.174;2022-08-14T12:01:29;3.40;;;2.60;;
7561;SDS011;3822;48.784;9.174;2022-08-14T12:04:18;3.30;;;3.00;;
7561;SDS011;3822;48.784;9.174;2022-08-14T12:12:24;3.70;;;2.60;;
7561;SDS011;3822;48.784;9.174;2022-08-14T12:14:54;3.20;;;2.50;;
7561;SDS011;3822;48.784;9.174;2022-08-14T12:17:26;3.23;;;2.40;;
7561;SDS011;3822;48.784;9.174;2022-08-14T12:19:57;4.20;;;2.80;;
7561;SDS011;3822;48.784;9.174;2022-08-14T12:22:33;3.23;;;2.80;;
7561;SDS011;3822;48.784;9.174;2022-08-14T12:25:11;2.67;;;2.30;;
7561;SDS011;3822;48.784;9.174;2022-08-14T12:27:49;4.30;;;3.07;;
7561;SDS011;3822;48.784;9.174;2022-08-14T12:30:25;2.87;;;2.57;;
7561;SDS011;3822;48.784;9.174;2022-08-14T12:33:05;4.00;;;3.07;;
7561;SDS011;3822;48.784;9.174;2022-08-14T12:35:52;3.00;;;2.70;;
7561;SDS011;3822;48.784;9.174;2022-08-14T12:38:30;3.50;;;2.60;;
7561;SDS011;3822;48.784;9.174;2022-08-14T12:41:10;3.63;;;2.07;;
7561;SDS011;3822;48.784;9.174;2022-08-14T12:43:53;4.50;;;2.80;;
7561;SDS011;3822;48.784;9.174;2022-08-14T12:46:23;2.70;;;2.50;;
7561;SDS011;3822;48.784;9.174;2022-08-14T12:49:01;2.90;;;2.20;;
7561;SDS011;3822;48.784;9.174;2022-08-14T12:51:39;3.23;;;2.20;;
7561;SDS011;3822;48.784;9.174;2022-08-14T12:54:13;3.50;;;1.90;;
7561;SDS011;3822;48.784;9.174;2022-08-14T12:56:44;2.27;;;2.00;;
7561;SDS011;3822;48.784;9.174;2022-08-14T12:59:12;4.17;;;2.03;;
7561;SDS011;3822;48.784;9.174;2022-08-14T13:01:40;2.30;;;2.10;;
7561;SDS011;3822;48.784;9.174;2022-08-14T13:04:13;2.57;;;2.20;;
7561;SDS011;3822;48.784;9.174;2022-08-14T13:06:42;2.90;;;2.40;;
7561;SDS011;3822;48.784;9.174;2022-08-14T13:09:12;4.33;;;1.83;;
7561;SDS011;3822;48.784;9.174;2022-08-14T13:11:42;3.00;;;2.30;;
7561;SDS011;3822;48.784;9.174;2022-08-14T13:14:17;2.03;;;1.77;;
7561;SDS011;3822;48.784;9.174;2022-08-14T13:16:51;3.10;;;2.23;;
7561;SDS011;3822;48.784;9.174;2022-08-14T13:19:19;6.50;;;2.80;;
7561;SDS011;3822;48.784;9.174;2022-08-14T13:21:47;2.23;;;1.90;;
7561;SDS011;3822;48.784;9.174;2022-08-14T13:24:15;2.07;;;1.57;;
7561;SDS011;3822;48.784;9.174;2022-08-14T13:26:45;2.03;;;1.83;;
7561;SDS011;3822;48.784;9.174;2022-08-14T13:29:22;3.60;;;1.87;;
7561;SDS011;3822;48.784;9.174;2022-08-14T13:31:53;2.30;;;2.10;;
7561;SDS011;3822;48.784;9.174;2022-08-14T13:34:23;2.27;;;2.00;;
7561;SDS011;3822;48.784;9.174;2022-08-14T13:36:52;1.90;;;1.73;;
7561;SDS011;3822;48.784;9.174;2022-08-14T13:39:24;4.30;;;1.97;;
7561;SDS011;3822;48.784;9.174;2022-08-14T13:41:51;2.07;;;1.87;;
7561;SDS011;3822;48.784;9.174;2022-08-14T13:44:18;1.70;;;1.60;;
7561;SDS011;3822;48.784;9.174;2022-08-14T13:46:47;1.90;;;1.73;;
7561;SDS011;3822;48.784;9.174;2022-08-14T13:49:14;4.77;;;2.00;;
7561;SDS011;3822;48.784;9.174;2022-08-14T13:51:45;5.40;;;2.10;;
7561;SDS011;3822;48.784;9.174;2022-08-14T13:54:14;2.40;;;2.20;;
7561;SDS011;3822;48.784;9.174;2022-08-14T13:56:47;2.60;;;2.10;;
7561;SDS011;3822;48.784;9.174;2022-08-14T13:59:14;1.87;;;1.60;;
7561;SDS011;3822;48.784;9.174;2022-08-14T14:01:41;2.67;;;2.00;;
7561;SDS011;3822;48.784;9.174;2022-08-14T14:04:12;2.00;;;1.80;;
7561;SDS011;3822;48.784;9.174;2022-08-14T14:06:42;2.00;;;1.60;;
7561;SDS011;3822;48.784;9.174;2022-08-14T14:09:13;1.83;;;1.63;;
7561;SDS011;3822;48.784;9.174;2022-08-14T14:11:42;3.43;;;1.67;;
7561;SDS011;3822;48.784;9.174;2022-08-14T14:14:09;3.00;;;1.53;;
7561;SDS011;3822;48.784;9.174;2022-08-14T14:16:37;1.53;;;1.43;;
7561;SDS011;3822;48.784;9.174;2022-08-14T14:19:05;2.17;;;1.87;;
7561;SDS011;3822;48.784;9.174;2022-08-14T14:21:32;1.83;;;1.47;;
7561;SDS011;3822;48.784;9.174;2022-08-14T14:23:59;1.90;;;1.70;;
7561;SDS011;3822;48.784;9.174;2022-08-14T14:26:26;2.03;;;1.40;;
7561;SDS011;3822;48.784;9.174;2022-08-14T14:28:54;1.63;;;1.47;;
7561;SDS011;3822;48.784;9.174;2022-08-14T14:31:25;1.63;;;1.53;;
7561;SDS011;3822;48.784;9.174;2022-08-14T14:33:55;5.50;;;1.80;;
7561;SDS011;3822;48.784;9.174;2022-08-14T14:36:29;1.63;;;1.53;;
7561;SDS011;3822;48.784;9.174;2022-08-14T14:39:00;1.77;;;1.57;;
7561;SDS011;3822;48.784;9.174;2022-08-14T14:41:36;3.17;;;1.87;;
7561;SDS011;3822;48.784;9.174;2022-08-14T14:44:05;3.40;;;2.10;;
7561;SDS011;3822;48.784;9.174;2022-08-14T14:46:37;1.83;;;1.57;;
7561;SDS011;3822;48.784;9.174;2022-08-14T14:49:06;3.00;;;1.77;;
7561;SDS011;3822;48.784;9.174;2022-08-14T14:51:39;2.20;;;2.00;;
7561;SDS011;3822;48.784;9.174;2022-08-14T14:54:09;2.37;;;1.60;;
7561;SDS011;3822;48.784;9.174;2022-08-14T14:56:40;2.17;;;1.77;;
7561;SDS011;3822;48.784;9.174;2022-08-14T14:59:07;1.80;;;1.70;;
7561;SDS011;3822;48.784;9.174;2022-08-14T15:01:36;2.23;;;2.03;;
7561;SDS011;3822;48.784;9.174;2022-08-14T15:04:03;1.90;;;1.60;;
7561;SDS011;3822;48.784;9.174;2022-08-14T15:06:32;2.20;;;1.67;;
7561;SDS011;3822;48.784;9.174;2022-08-14T15:08:59;2.00;;;1.80;;
7561;SDS011;3822;48.784;9.174;2022-08-14T15:11:27;2.50;;;1.80;;
7561;SDS011;3822;48.784;9.174;2022-08-14T15:13:53;2.63;;;2.00;;
7561;SDS011;3822;48.784;9.174;2022-08-14T15:16:20;1.60;;;1.50;;
7561;SDS011;3822;48.784;9.174;2022-08-14T15:18:47;1.60;;;1.50;;
7561;SDS011;3822;48.784;9.174;2022-08-14T15:21:13;2.17;;;1.97;;
7561;SDS011;3822;48.784;9.174;2022-08-14T15:23:40;1.87;;;1.63;;
7561;SDS011;3822;48.784;9.174;2022-08-14T15:26:07;1.70;;;1.60;;
7561;SDS011;3822;48.784;9.174;2022-08-14T15:28:33;1.90;;;1.77;;
7561;SDS011;3822;48.784;9.174;2022-08-14T15:31:04;1.60;;;1.50;;
7561;SDS011;3822;48.784;9.174;2022-08-14T15:33:31;1.97;;;1.40;;
7561;SDS011;3822;48.784;9.174;2022-08-14T15:36:16;1.60;;;1.50;;
7561;SDS011;3822;48.784;9.174;2022-08-14T15:38:44;3.10;;;1.90;;
7561;SDS011;3822;48.784;9.174;2022-08-14T15:41:12;2.00;;;1.80;;
7561;SDS011;3822;48.784;9.174;2022-08-14T15:43:38;2.07;;;1.83;;
7561;SDS011;3822;48.784;9.174;2022-08-14T15:46:05;1.40;;;1.30;;
7561;SDS011;3822;48.784;9.174;2022-08-14T15:48:33;1.90;;;1.70;;
7561;SDS011;3822;48.784;9.174;2022-08-14T15:51:00;2.10;;;1.77;;
7561;SDS011;3822;48.784;9.174;2022-08-14T15:53:28;1.63;;;1.53;;
7561;SDS011;3822;48.784;9.174;2022-08-14T15:55:54;1.80;;;1.50;;
7561;SDS011;3822;48.784;9.174;2022-08-14T15:58:22;2.10;;;1.90;;
7561;SDS011;3822;48.784;9.174;2022-08-14T16:00:51;1.87;;;1.73;;
7561;SDS011;3822;48.784;9.174;2022-08-14T16:03:37;1.70;;;1.60;;